Time;durP1;ratioP1;P1;durP2;ratioP2;P2;SDS_P1;SDS_P2;PMS_P1;PMS_P2;Temp;Humidity;BMP_temperature;BMP_pressure;BME280_temperature;BME280_humidity;BME280_pressure;Samples;Min_cycle;Max_cycle;Signal;HPM_P1;HPM_P2
2023/01/07 00:01:43;;;;;;;8.77;5.47;;;;;;;-5.44;88.34;102821.66;5033572;28;20030;-73
2023/01/07 00:04:12;;;;;;;9.75;5.25;;;;;;;-5.46;88.47;102813.03;5033527;28;20397;-73
2023/01/07 00:06:39;;;;;;;6.78;5.53;;;;;;;-5.51;88.49;102817.34;5033506;28;20053;-74
2023/01/07 00:09:06;;;;;;;5.85;5.18;;;;;;;-5.48;88.10;102827.75;5047286;28;20025;-74
2023/01/07 00:11:35;;;;;;;10.80;5.78;;;;;;;-5.50;88.33;102819.06;5058464;28;20063;-75
2023/01/07 00:14:02;;;;;;;;;;;;;;;-5.46;87.97;102823.41;5059042;28;20044;-75
2023/01/07 00:16:30;;;;;;;10.07;6.00;;;;;;;-5.52;88.13;102823.41;5044701;28;19913;-75
2023/01/07 00:18:57;;;;;;;;;;;;;;;-5.51;88.87;102819.94;5035670;28;20043;-74
2023/01/07 00:21:24;;;;;;;7.18;5.10;;;;;;;-5.57;88.75;102819.13;5034679;28;19909;-73
2023/01/07 00:23:57;;;;;;;7.80;4.95;;;;;;;-5.63;88.59;102818.31;5015766;28;20033;-73
2023/01/07 00:26:25;;;;;;;8.18;5.28;;;;;;;-5.65;88.71;102816.59;5033689;28;20141;-73
2023/01/07 00:28:52;;;;;;;11.75;6.07;;;;;;;-5.72;89.34;102805.41;5033570;28;20033;-74
2023/01/07 00:31:24;;;;;;;7.97;5.57;;;;;;;-5.63;89.86;102820.03;5045772;28;20053;-75
2023/01/07 00:36:19;;;;;;;7.33;5.30;;;;;;;-5.89;89.05;102773.47;5058204;28;20033;-73
2023/01/07 00:38:45;;;;;;;8.35;6.05;;;;;;;-5.66;89.74;102809.69;5035092;28;20038;-74
2023/01/07 00:41:11;;;;;;;9.83;6.00;;;;;;;-5.63;89.76;102822.63;5016374;28;20037;-72
2023/01/07 00:43:36;;;;;;;10.00;6.03;;;;;;;-5.70;89.36;102807.97;5033645;28;20032;-74
2023/01/07 00:46:02;;;;;;;13.10;6.60;;;;;;;-5.81;89.92;102804.56;5033519;28;20103;-75
2023/01/07 00:48:28;;;;;;;8.37;5.67;;;;;;;-5.73;90.09;102808.88;5033053;28;20035;-75
2023/01/07 00:51:19;;;;;;;8.10;5.93;;;;;;;-5.64;90.04;102824.38;5033271;28;20291;-73
2023/01/07 00:53:45;;;;;;;7.00;5.70;;;;;;;-5.60;89.67;102814.84;5032524;28;20473;-73
2023/01/07 00:56:13;;;;;;;8.25;5.57;;;;;;;-5.62;89.46;102809.66;5033026;28;20083;-72
2023/01/07 00:58:39;;;;;;;7.25;5.35;;;;;;;-5.65;89.71;102806.22;5032667;28;20029;-76
2023/01/07 01:01:04;;;;;;;9.60;5.70;;;;;;;-5.61;89.52;102820.91;5032772;28;20491;-74
2023/01/07 01:03:31;;;;;;;7.67;5.93;;;;;;;-5.56;89.15;102832.09;5032989;28;20040;-72
2023/01/07 01:06:06;;;;;;;9.05;6.30;;;;;;;-5.63;88.79;102833.03;5033900;28;20113;-74
2023/01/07 01:08:31;;;;;;;7.32;5.57;;;;;;;-5.71;89.12;102827.03;5033294;28;20029;-73
2023/01/07 01:11:03;;;;;;;9.27;6.63;;;;;;;-5.70;89.37;102839.13;5032933;28;20048;-76
2023/01/07 01:13:29;;;;;;;6.70;5.22;;;;;;;-5.76;89.39;102833.97;5032493;28;20053;-74
2023/01/07 01:15:56;;;;;;;7.90;6.20;;;;;;;-5.76;89.56;102833.97;5032077;28;20067;-74
2023/01/07 01:18:21;;;;;;;8.60;5.85;;;;;;;-5.88;89.67;102821.91;5032517;28;20044;-74
2023/01/07 01:20:47;;;;;;;10.20;5.90;;;;;;;-5.85;90.02;102834.88;5032159;28;20083;-73
2023/01/07 01:23:12;;;;;;;12.60;6.40;;;;;;;-5.86;90.02;102832.28;5031303;28;20029;-75
2023/01/07 01:25:38;;;;;;;10.37;6.80;;;;;;;-5.86;89.91;102837.47;5014726;28;20112;-74
2023/01/07 01:28:03;;;;;;;11.50;6.73;;;;;;;-6.00;89.17;102833.25;5032134;28;20526;-74
2023/01/07 01:30:29;;;;;;;15.93;8.20;;;;;;;-5.97;90.07;102841.00;5032115;28;20524;-74
2023/01/07 01:32:54;;;;;;;13.90;8.17;;;;;;;-5.89;89.81;102846.13;5032755;28;20377;-72
2023/01/07 01:35:20;;;;;;;12.27;7.73;;;;;;;-5.91;90.46;102834.06;5031847;28;20040;-73
2023/01/07 01:37:45;;;;;;;10.93;7.13;;;;;;;-5.88;89.79;102834.00;5014460;28;20029;-71
2023/01/07 01:40:11;;;;;;;10.10;8.03;;;;;;;-5.93;89.91;102834.94;5031917;28;20029;-73
2023/01/07 01:42:38;;;;;;;12.75;7.45;;;;;;;-5.99;89.68;102826.31;5014533;28;20037;-73
2023/01/07 01:45:05;;;;;;;11.23;7.13;;;;;;;-6.05;90.04;102822.03;5031927;28;20152;-75
2023/01/07 01:47:42;;;;;;;13.38;7.60;;;;;;;-5.99;89.59;102836.72;5031994;28;20045;-73
2023/01/07 01:50:28;;;;;;;11.73;7.10;;;;;;;-6.02;89.26;102834.13;5032001;28;20044;-74
2023/01/07 01:53:04;;;;;;;12.00;7.30;;;;;;;-5.97;89.70;102834.97;5032082;28;20427;-73
2023/01/07 01:55:34;;;;;;;11.80;7.18;;;;;;;-6.13;89.60;102803.03;5027774;28;20029;-71
2023/01/07 01:58:05;;;;;;;10.43;7.60;;;;;;;-6.04;89.53;102821.16;5042392;28;20060;-74
2023/01/07 02:00:35;;;;;;;10.25;7.85;;;;;;;-6.06;90.13;102815.13;5041653;28;20033;-73
2023/01/07 02:03:01;;;;;;;13.48;8.52;;;;;;;-6.00;90.62;102814.22;5041279;28;20025;-73
2023/01/07 02:05:38;;;;;;;10.60;8.35;;;;;;;-5.92;90.34;102822.81;5023867;28;20445;-73
2023/01/07 02:08:05;;;;;;;12.18;7.68;;;;;;;-5.94;90.18;102825.44;5036369;28;20026;-73
2023/01/07 02:10:31;;;;;;;14.93;8.48;;;;;;;-5.98;90.10;102820.28;5014706;28;20179;-75
2023/01/07 02:13:06;;;;;;;15.10;8.57;;;;;;;-5.99;90.23;102816.81;5031620;28;20061;-73
2023/01/07 02:15:40;;;;;;;13.32;8.73;;;;;;;-6.02;89.18;102822.03;5031379;28;20049;-74
2023/01/07 02:18:21;;;;;;;12.55;7.78;;;;;;;-6.03;89.21;102827.22;5031817;28;20038;-74
2023/01/07 02:21:06;;;;;;;11.63;7.97;;;;;;;-6.09;89.91;102822.03;5032021;28;20037;-75
2023/01/07 02:23:56;;;;;;;13.15;8.10;;;;;;;-6.08;89.39;102832.41;5015033;28;20029;-72
2023/01/07 02:26:43;;;;;;;14.48;8.48;;;;;;;-6.13;89.43;102823.78;5031803;28;20159;-73
2023/01/07 02:29:30;;;;;;;17.50;8.68;;;;;;;-6.15;89.63;102829.84;5031591;28;20037;-75
2023/01/07 02:32:22;;;;;;;13.45;8.27;;;;;;;-6.19;89.20;102820.34;5031812;28;20035;-75
2023/01/07 02:34:56;;;;;;;15.52;8.73;;;;;;;-6.20;89.72;102823.81;5013859;28;20087;-75
2023/01/07 02:37:35;;;;;;;10.85;7.95;;;;;;;-6.20;89.70;102827.28;5017728;28;20029;-75
2023/01/07 02:40:07;;;;;;;12.98;7.88;;;;;;;-6.21;89.83;102824.69;5017313;28;20479;-74
2023/01/07 02:42:42;;;;;;;11.40;7.82;;;;;;;-6.20;89.96;102822.09;5035278;28;20373;-74
2023/01/07 02:45:19;;;;;;;12.70;8.40;;;;;;;-6.22;90.50;102816.03;5035015;28;20082;-73
2023/01/07 02:48:02;;;;;;;15.35;8.40;;;;;;;-6.16;90.38;102828.97;5035044;28;20024;-75
2023/01/07 02:50:27;;;;;;;14.13;8.20;;;;;;;-6.18;89.89;102824.66;5035067;28;20030;-74
2023/01/07 02:52:53;;;;;;;15.17;7.60;;;;;;;-6.18;89.73;102820.34;5035030;28;20025;-75
2023/01/07 02:55:27;;;;;;;12.37;8.80;;;;;;;-6.17;90.00;102826.38;5035083;28;20548;-73
2023/01/07 02:58:07;;;;;;;12.30;7.18;;;;;;;-6.23;90.42;102829.00;5035140;28;20087;-72
2023/01/07 03:00:54;;;;;;;8.75;7.45;;;;;;;-6.20;90.06;102831.59;5034755;28;20026;-74
2023/01/07 03:03:41;;;;;;;12.18;6.72;;;;;;;-6.18;89.79;102837.63;5034868;28;20048;-74
2023/01/07 03:06:36;;;;;;;13.43;8.50;;;;;;;-6.16;90.08;102848.88;5034588;28;20068;-73
2023/01/07 03:09:23;;;;;;;10.88;6.78;;;;;;;-6.25;89.35;102827.28;5034567;28;20026;-73
2023/01/07 03:12:24;;;;;;;14.40;8.18;;;;;;;-6.23;89.25;102837.66;5034737;28;20034;-73
2023/01/07 03:14:57;;;;;;;13.60;7.78;;;;;;;-6.30;89.21;102835.97;5002978;28;20051;-74
2023/01/07 03:17:30;;;;;;;13.32;7.25;;;;;;;-6.35;89.95;102819.56;5034614;28;20045;-75
2023/01/07 03:19:59;;;;;;;9.70;6.68;;;;;;;-6.27;89.93;102838.53;5034711;28;20095;-75
2023/01/07 03:22:28;;;;;;;11.80;6.78;;;;;;;-6.34;89.94;102829.91;5034557;28;20422;-73
2023/01/07 03:24:55;;;;;;;;;;;;;;;-6.24;89.87;102828.16;5035063;28;20029;-73
2023/01/07 03:27:22;;;;;;;11.85;6.57;;;;;;;-6.33;89.20;102820.41;5034131;28;20008;-74
2023/01/07 03:29:51;;;;;;;11.18;7.82;;;;;;;-6.22;89.05;102836.78;5034383;28;20039;-73
2023/01/07 03:32:23;;;;;;;8.55;6.57;;;;;;;-6.37;89.68;102821.25;5034153;28;20029;-75
2023/01/07 03:34:48;;;;;;;9.65;6.88;;;;;;;-6.28;89.07;102835.09;5036935;28;20033;-73
2023/01/07 03:37:18;;;;;;;9.43;6.90;;;;;;;-6.27;89.34;102847.19;5018127;28;20041;-72
2023/01/07 03:39:46;;;;;;;13.32;6.72;;;;;;;-6.26;88.72;102842.84;5036108;28;20071;-74
2023/01/07 03:44:58;;;;;;;10.07;6.80;;;;;;;-6.34;88.75;102840.28;5056520;28;20037;-72
2023/01/07 03:47:27;;;;;;;8.02;5.85;;;;;;;-6.31;88.34;102844.59;5056774;28;20048;-73
2023/01/07 03:49:52;;;;;;;8.93;5.80;;;;;;;-6.32;89.05;102848.94;5044992;28;20033;-72
2023/01/07 03:52:20;;;;;;;8.32;6.75;;;;;;;-6.53;88.72;102827.38;5017849;28;20124;-72
2023/01/07 03:54:45;;;;;;;12.20;6.23;;;;;;;-6.46;88.73;102849.81;5016753;28;20025;-75
2023/01/07 03:57:11;;;;;;;9.43;6.57;;;;;;;-6.48;88.67;102846.34;5034350;28;20107;-74
2023/01/07 03:59:36;;;;;;;8.43;5.80;;;;;;;-6.46;88.53;102852.41;5034387;28;20025;-73
2023/01/07 04:02:02;;;;;;;12.53;6.43;;;;;;;-6.44;88.93;102858.44;5016651;28;20033;-75
2023/01/07 04:04:27;;;;;;;9.33;6.13;;;;;;;-6.50;88.20;102853.28;5033957;28;20108;-73
2023/01/07 04:06:53;;;;;;;10.37;5.70;;;;;;;-6.44;88.99;102855.84;5015802;28;20041;-75
2023/01/07 04:09:20;;;;;;;16.53;5.20;;;;;;;-6.39;88.50;102860.16;5033276;28;20041;-74
2023/01/07 04:11:45;;;;;;;12.32;7.05;;;;;;;-6.54;88.28;102828.25;5033235;28;20030;-75
2023/01/07 04:14:11;;;;;;;9.20;6.17;;;;;;;-6.49;88.42;102842.03;5033258;28;20420;-75
2023/01/07 04:16:37;;;;;;;9.67;6.03;;;;;;;-6.38;88.16;102863.63;5033389;28;20051;-75
2023/01/07 04:19:03;;;;;;;8.10;5.43;;;;;;;-6.41;88.18;102851.53;5033220;28;20048;-73
2023/01/07 04:21:28;;;;;;;10.40;6.60;;;;;;;-6.37;88.89;102855.81;5033333;28;20029;-76
2023/01/07 04:23:56;;;;;;;6.88;5.30;;;;;;;-6.29;88.49;102864.47;5033037;28;20508;-75
2023/01/07 04:26:21;;;;;;;7.63;5.23;;;;;;;-6.35;87.86;102868.81;5033131;28;20025;-73
2023/01/07 04:28:47;;;;;;;7.73;4.97;;;;;;;-6.54;88.34;102854.16;5033170;28;20095;-75
2023/01/07 04:31:12;;;;;;;7.13;5.77;;;;;;;-6.50;88.52;102869.69;5033093;28;20060;-74
2023/01/07 04:33:38;;;;;;;6.50;5.37;;;;;;;-6.59;88.82;102865.41;5032791;28;20049;-75
2023/01/07 04:36:04;;;;;;;9.37;5.80;;;;;;;-6.49;88.89;102870.56;5032848;28;20059;-74
2023/01/07 04:38:29;;;;;;;8.37;5.57;;;;;;;-6.43;89.03;102880.91;5033139;28;20026;-73
2023/01/07 04:40:55;;;;;;;7.63;4.93;;;;;;;-6.45;89.41;102867.09;5033061;28;20075;-73
2023/01/07 04:43:20;;;;;;;7.27;5.03;;;;;;;-6.37;89.43;102876.56;5033446;28;20371;-73
2023/01/07 04:45:46;;;;;;;7.60;5.77;;;;;;;-6.39;88.59;102878.31;5033323;28;20026;-73
2023/01/07 04:48:13;;;;;;;8.53;5.97;;;;;;;-6.46;88.50;102862.78;5033200;28;20037;-73
2023/01/07 04:50:38;;;;;;;10.30;6.28;;;;;;;-6.38;88.74;102874.84;5033051;28;20040;-73
2023/01/07 04:53:04;;;;;;;9.83;5.60;;;;;;;-6.36;88.22;102872.25;5032642;28;20029;-73
2023/01/07 04:55:29;;;;;;;10.27;4.97;;;;;;;-6.34;87.87;102879.19;5033143;28;20523;-75
2023/01/07 04:57:55;;;;;;;7.37;4.47;;;;;;;-6.37;88.46;102875.72;5035195;28;20048;-74
2023/01/07 05:00:21;;;;;;;7.13;5.40;;;;;;;-6.34;88.71;102874.00;5033776;28;20033;-74
2023/01/07 05:02:47;;;;;;;8.10;5.83;;;;;;;-6.29;88.47;102880.03;5033112;28;20099;-73
2023/01/07 05:05:12;;;;;;;6.63;5.13;;;;;;;-6.69;87.87;102818.75;5034400;28;20029;-75
2023/01/07 05:07:38;;;;;;;7.53;6.07;;;;;;;-6.31;87.91;102879.19;5033166;28;20029;-74
2023/01/07 05:10:04;;;;;;;7.83;4.77;;;;;;;-6.34;88.62;102865.34;5033599;28;20045;-73
2023/01/07 05:12:34;;;;;;;9.73;5.53;;;;;;;-6.29;88.55;102885.22;5032347;28;20123;-75
2023/01/07 05:15:02;;;;;;;8.60;5.55;;;;;;;-6.35;88.23;102874.00;5032503;28;20050;-76
2023/01/07 05:17:29;;;;;;;5.88;4.88;;;;;;;-6.33;88.11;102874.88;5032329;28;20029;-74
2023/01/07 05:19:55;;;;;;;7.03;5.33;;;;;;;-6.25;88.31;102876.56;5032258;28;20495;-74
2023/01/07 05:22:20;;;;;;;6.73;5.27;;;;;;;-6.37;87.65;102863.59;5032231;28;20033;-72
2023/01/07 05:24:46;;;;;;;8.53;4.83;;;;;;;-6.34;87.41;102881.78;5035320;28;20025;-75
2023/01/07 05:27:11;;;;;;;9.33;6.20;;;;;;;-6.38;88.08;102881.75;5032484;28;20053;-73
2023/01/07 05:29:37;;;;;;;8.47;5.53;;;;;;;-6.32;87.91;102885.22;5032876;28;20068;-74
2023/01/07 05:32:03;;;;;;;9.93;6.03;;;;;;;-6.38;88.67;102885.22;5032374;28;20036;-74
2023/01/07 05:34:29;;;;;;;8.57;6.70;;;;;;;-6.37;88.52;102891.25;5031468;28;20052;-72
2023/01/07 05:36:55;;;;;;;8.10;6.25;;;;;;;-6.44;88.06;102877.47;5030897;28;20029;-72
2023/01/07 05:39:21;;;;;;;12.50;5.03;;;;;;;-6.37;88.14;102891.25;5030217;28;20112;-73
2023/01/07 05:41:46;;;;;;;5.90;4.60;;;;;;;-6.43;88.23;102880.91;5030466;28;20032;-75
2023/01/07 05:44:12;;;;;;;7.03;4.97;;;;;;;-6.46;88.80;102883.50;5030259;28;20062;-75
2023/01/07 05:46:37;;;;;;;7.40;5.07;;;;;;;-6.41;88.47;102884.38;5030124;28;20021;-73
2023/01/07 05:49:03;;;;;;;7.93;5.43;;;;;;;-6.41;88.52;102889.53;5012508;28;20025;-75
2023/01/07 05:51:28;;;;;;;7.50;4.77;;;;;;;-6.45;88.34;102882.66;5030164;28;20029;-74
2023/01/07 05:53:54;;;;;;;6.03;5.10;;;;;;;-6.57;88.68;102876.63;5033097;28;20384;-74
2023/01/07 05:56:20;;;;;;;5.83;4.80;;;;;;;-6.51;89.06;102880.94;5032220;28;20026;-73
2023/01/07 05:58:47;;;;;;;7.40;5.28;;;;;;;-6.51;88.85;102882.66;5032059;28;20025;-73
2023/01/07 06:01:13;;;;;;;11.47;5.77;;;;;;;-6.59;88.49;102875.75;5031891;28;20350;-74
2023/01/07 06:03:38;;;;;;;6.77;4.83;;;;;;;-6.60;88.76;102884.41;5031741;28;20021;-73
2023/01/07 06:06:06;;;;;;;8.30;5.13;;;;;;;-6.58;88.99;102877.50;5014271;28;20029;-75
2023/01/07 06:08:40;;;;;;;7.13;5.22;;;;;;;-6.62;88.97;102870.59;5031439;28;20037;-74
2023/01/07 06:11:07;;;;;;;6.32;4.88;;;;;;;-6.60;88.91;102884.41;5035646;28;20033;-75
2023/01/07 06:13:33;;;;;;;6.55;4.78;;;;;;;-6.60;88.84;102879.22;5035683;28;20048;-75
2023/01/07 06:16:06;;;;;;;6.95;4.93;;;;;;;-6.59;88.70;102869.72;5035298;28;20179;-74
2023/01/07 06:18:31;;;;;;;7.43;5.18;;;;;;;-6.57;89.46;102883.53;5035701;28;20102;-72
2023/01/07 06:20:57;;;;;;;9.33;5.47;;;;;;;-6.59;89.09;102882.69;5035470;28;20029;-73
2023/01/07 06:23:22;;;;;;;7.47;5.93;;;;;;;-6.56;88.90;102886.13;5035518;28;20032;-73
2023/01/07 06:25:48;;;;;;;7.13;5.57;;;;;;;-6.88;88.49;102830.88;5035558;28;20045;-75
2023/01/07 06:28:13;;;;;;;8.47;5.73;;;;;;;-6.59;89.20;102893.91;5035623;28;20497;-73
2023/01/07 06:30:39;;;;;;;7.60;5.83;;;;;;;-6.67;89.04;102893.03;5050344;28;20120;-73
2023/01/07 06:33:04;;;;;;;13.30;7.87;;;;;;;-6.75;89.34;102889.59;5046515;28;20040;-72
2023/01/07 06:35:31;;;;;;;6.30;5.27;;;;;;;-6.76;89.49;102895.63;5036353;28;20041;-75
2023/01/07 06:37:57;;;;;;;6.82;5.63;;;;;;;-6.82;89.48;102881.81;5036075;28;20034;-74
2023/01/07 06:40:23;;;;;;;8.10;5.63;;;;;;;-6.67;89.50;102913.75;5017999;28;20029;-76
2023/01/07 06:42:48;;;;;;;9.98;5.95;;;;;;;-6.72;89.82;102902.53;5035571;28;20087;-75
2023/01/07 06:45:14;;;;;;;7.47;5.40;;;;;;;-6.73;89.59;102913.75;5035424;28;20408;-76
2023/01/07 06:47:40;;;;;;;8.73;6.20;;;;;;;-6.85;90.01;102900.81;5035622;28;20037;-75
2023/01/07 06:50:06;;;;;;;7.50;5.53;;;;;;;-6.84;89.74;102899.97;5035277;28;20029;-75
2023/01/07 06:52:32;;;;;;;8.23;5.95;;;;;;;-6.71;89.55;102906.00;5017795;28;20025;-74
2023/01/07 06:54:57;;;;;;;12.60;5.60;;;;;;;-6.70;90.38;102903.41;5035429;28;20034;-74
2023/01/07 06:57:23;;;;;;;12.10;5.37;;;;;;;-6.69;89.73;102902.53;5035246;28;20046;-74
2023/01/07 06:59:48;;;;;;;6.83;5.83;;;;;;;-6.59;90.28;102917.22;5034840;28;20107;-74
2023/01/07 07:02:20;;;;;;;11.57;5.57;;;;;;;-6.49;89.78;102912.03;5035987;28;20034;-76
2023/01/07 07:04:47;;;;;;;6.65;5.95;;;;;;;-6.46;88.99;102912.03;5041381;28;20030;-77
2023/01/07 07:07:13;;;;;;;9.32;6.80;;;;;;;-6.56;89.04;102909.44;5037868;28;20026;-75
2023/01/07 07:09:38;;;;;;;7.20;5.57;;;;;;;-6.51;88.76;102908.59;5036199;28;20326;-74
2023/01/07 07:12:04;;;;;;;11.20;5.63;;;;;;;-6.57;88.38;102912.91;5035881;28;20029;-74
2023/01/07 07:14:30;;;;;;;8.83;5.87;;;;;;;-6.56;88.20;102917.22;5034751;28;20025;-73
2023/01/07 07:16:57;;;;;;;8.50;5.00;;;;;;;-6.59;87.39;102919.81;5034875;28;20080;-75
2023/01/07 07:19:22;;;;;;;5.00;4.40;;;;;;;-6.69;87.02;102910.31;5035215;28;20029;-75
2023/01/07 07:21:51;;;;;;;7.13;4.80;;;;;;;-6.70;86.59;102929.31;5037588;28;20032;-73
2023/01/07 07:24:17;;;;;;;11.55;4.30;;;;;;;-6.70;86.32;102928.44;5035232;28;20025;-75
2023/01/07 07:26:42;;;;;;;6.10;4.97;;;;;;;-6.74;85.73;102927.59;5035965;28;20076;-72
2023/01/07 07:29:09;;;;;;;6.07;4.50;;;;;;;-6.74;86.35;102927.59;5035623;28;20466;-76
2023/01/07 07:31:35;;;;;;;5.95;4.18;;;;;;;-6.72;86.42;102925.00;5034668;28;20161;-77
2023/01/07 07:34:01;;;;;;;7.25;5.10;;;;;;;-6.65;86.54;102937.09;5038995;28;20037;-75
2023/01/07 07:36:26;;;;;;;6.63;4.60;;;;;;;-6.67;86.27;102934.50;5036110;28;20028;-76
2023/01/07 07:38:52;;;;;;;5.17;4.30;;;;;;;-6.63;86.54;102941.44;5041205;28;20036;-76
2023/01/07 07:41:17;;;;;;;6.20;4.57;;;;;;;-6.54;85.97;102955.25;5037327;28;20379;-75
2023/01/07 07:43:43;;;;;;;5.10;4.23;;;;;;;-6.57;85.32;102956.97;5036310;28;20032;-76
2023/01/07 07:46:11;;;;;;;7.77;6.33;;;;;;;-6.51;85.00;102955.25;5001681;28;20028;-78
2023/01/07 07:48:36;;;;;;;4.85;4.40;;;;;;;-6.69;84.17;102925.84;5034514;28;20037;-76
2023/01/07 07:51:02;;;;;;;6.07;4.57;;;;;;;-6.45;84.44;102950.03;5036046;28;20026;-76
2023/01/07 07:53:28;;;;;;;5.30;4.00;;;;;;;-6.41;84.28;102951.75;5034675;28;20021;-69
2023/01/07 07:55:53;;;;;;;5.50;4.90;;;;;;;-6.39;84.07;102960.41;5034980;28;20033;-73
2023/01/07 07:58:19;;;;;;;5.97;4.20;;;;;;;-6.76;83.63;102890.44;5019335;28;20028;-72
2023/01/07 08:01:13;;;;;;;4.20;3.42;;;;;;;-6.32;83.67;102954.38;5039251;28;20040;-76
2023/01/07 08:04:04;;;;;;;;;;;;;;;-6.29;83.90;102962.16;5041706;28;20103;-80
2023/01/07 08:06:36;;;;;;;6.95;5.68;;;;;;;-6.77;83.10;102880.94;5021482;28;19937;-76
2023/01/07 08:09:45;;;;;;;4.57;4.18;;;;;;;-6.39;82.68;102965.59;5039396;28;20029;-79
2023/01/07 08:12:51;;;;;;;6.47;5.30;;;;;;;-6.40;82.43;102971.63;5007873;28;20110;-82
2023/01/07 08:15:17;;;;;;;4.93;4.40;;;;;;;-6.45;82.56;102963.00;5035019;28;20053;-75
2023/01/07 08:17:44;;;;;;;9.40;4.03;;;;;;;-6.37;81.45;102971.63;5034881;28;20044;-73
2023/01/07 08:20:11;;;;;;;7.93;4.53;;;;;;;-6.43;80.93;102974.25;5034722;28;20120;-73
2023/01/07 08:22:36;;;;;;;3.70;3.40;;;;;;;-6.42;80.60;102978.56;5034482;28;20060;-71
2023/01/07 08:25:02;;;;;;;3.63;3.33;;;;;;;-6.41;80.61;102980.28;5033499;28;20063;-74
2023/01/07 08:27:30;;;;;;;5.53;3.88;;;;;;;-6.35;79.90;102977.72;5036977;28;20128;-70
2023/01/07 08:29:56;;;;;;;9.20;3.40;;;;;;;-6.32;79.67;102993.28;5042338;28;20037;-74
2023/01/07 08:32:21;;;;;;;5.77;3.77;;;;;;;-6.36;79.81;102983.75;5032993;28;20021;-73
2023/01/07 08:34:47;;;;;;;3.70;2.97;;;;;;;-6.40;79.37;102969.06;5032607;28;20381;-73
2023/01/07 08:37:13;;;;;;;6.57;3.23;;;;;;;-6.25;78.92;102982.88;5032777;28;20049;-73
2023/01/07 08:39:39;;;;;;;5.90;3.35;;;;;;;-6.22;77.62;102983.75;5032895;28;20026;-71
2023/01/07 08:42:10;;;;;;;4.20;3.50;;;;;;;-6.37;76.99;102985.47;5018923;28;20052;-72
2023/01/07 08:44:38;;;;;;;6.55;3.70;;;;;;;-6.29;77.64;102996.72;5019906;28;20566;-75
2023/01/07 08:47:04;;;;;;;4.20;3.47;;;;;;;-6.32;77.47;102985.50;5016782;28;20045;-75
2023/01/07 08:49:29;;;;;;;5.30;3.60;;;;;;;-6.29;77.71;102988.06;5032771;28;20472;-73
2023/01/07 08:51:55;;;;;;;6.07;4.47;;;;;;;-6.31;75.72;102993.25;5032629;28;20140;-70
2023/01/07 08:54:20;;;;;;;3.77;3.47;;;;;;;-6.35;76.14;102991.53;5032783;28;20366;-74
2023/01/07 08:56:46;;;;;;;3.43;3.13;;;;;;;-6.59;76.10;102943.16;5014315;28;20033;-75
2023/01/07 08:59:11;;;;;;;5.17;2.63;;;;;;;-6.18;75.59;102996.69;5033772;28;20029;-77
2023/01/07 09:01:38;;;;;;;5.07;3.90;;;;;;;-6.15;74.80;102994.09;5033315;28;20390;-68
2023/01/07 09:04:04;;;;;;;4.60;3.00;;;;;;;-6.11;75.28;102997.56;5033224;28;20055;-72
2023/01/07 09:06:29;;;;;;;3.83;3.20;;;;;;;-6.21;74.92;102991.53;5015041;28;20026;-75
2023/01/07 09:08:55;;;;;;;6.43;3.00;;;;;;;-6.22;74.14;102994.97;5032482;28;20075;-73
2023/01/07 09:11:20;;;;;;;3.53;2.97;;;;;;;-6.21;74.21;102986.34;5032415;28;20053;-71
2023/01/07 09:13:46;;;;;;;7.27;4.40;;;;;;;-6.28;73.34;102995.00;5032219;28;20116;-73
2023/01/07 09:16:12;;;;;;;3.73;3.33;;;;;;;-6.19;74.80;102991.50;5032193;28;20538;-71
2023/01/07 09:18:42;;;;;;;3.38;3.03;;;;;;;-6.27;74.37;102996.72;5032424;28;20072;-74
2023/01/07 09:21:07;;;;;;;3.88;3.47;;;;;;;-6.30;74.48;102996.72;5033111;28;20370;-72
2023/01/07 09:23:33;;;;;;;4.77;3.40;;;;;;;-6.28;74.10;102998.44;5015202;28;20075;-73
2023/01/07 09:25:58;;;;;;;5.73;3.40;;;;;;;-6.44;75.05;102980.28;5033136;28;20034;-79
2023/01/07 09:28:24;;;;;;;8.93;3.83;;;;;;;-6.30;74.38;103007.97;5014997;28;20029;-74
2023/01/07 09:30:49;;;;;;;4.50;3.23;;;;;;;-6.28;75.68;103001.03;5015623;28;20485;-72
2023/01/07 09:33:15;;;;;;;6.37;3.53;;;;;;;-6.17;75.33;103000.16;5032445;28;20094;-74
2023/01/07 09:35:40;;;;;;;5.63;3.40;;;;;;;-6.01;75.74;103013.13;5014779;28;20473;-70
2023/01/07 09:38:06;;;;;;;9.83;3.80;;;;;;;-6.04;74.58;103004.50;5032200;28;20484;-71
2023/01/07 09:40:37;;;;;;;4.80;3.23;;;;;;;-5.93;75.38;103013.09;5032321;28;20025;-71
2023/01/07 09:43:13;;;;;;;5.05;3.50;;;;;;;-5.86;74.47;103019.09;5032038;28;20047;-76
2023/01/07 09:45:46;;;;;;;6.57;4.38;;;;;;;-5.94;73.73;103017.44;5037996;28;20067;-75
2023/01/07 09:48:33;;;;;;;4.65;4.22;;;;;;;-6.03;74.41;102996.69;5021416;28;20033;-75
2023/01/07 09:51:08;;;;;;;11.10;3.95;;;;;;;-5.95;74.48;103026.09;5038822;28;20037;-75
2023/01/07 09:53:40;;;;;;;4.25;3.28;;;;;;;-6.28;73.88;102989.81;5038377;28;20048;-75
2023/01/07 09:56:16;;;;;;;3.35;3.10;;;;;;;-6.19;73.86;103014.84;5039005;28;20029;-73
2023/01/07 09:58:45;;;;;;;5.50;3.35;;;;;;;-6.12;74.37;103026.94;5039206;28;20036;-75
2023/01/07 10:01:35;;;;;;;4.68;3.15;;;;;;;-6.06;73.88;103029.56;5011650;28;20060;-78
2023/01/07 10:04:25;;;;;;;4.00;3.28;;;;;;;-5.95;73.80;103030.41;5032371;28;20388;-74
2023/01/07 10:07:15;;;;;;;5.80;3.08;;;;;;;-5.95;73.76;103041.66;5032178;28;20040;-74
2023/01/07 10:09:54;;;;;;;4.57;3.22;;;;;;;-5.97;73.79;103032.13;5045273;28;20088;-73
2023/01/07 10:12:58;;;;;;;5.10;3.60;;;;;;;-5.92;74.81;103030.41;5027622;28;20071;-73
2023/01/07 10:15:38;;;;;;;5.25;3.30;;;;;;;-5.87;73.82;103035.53;5040654;28;20068;-75
2023/01/07 10:18:04;;;;;;;5.13;3.67;;;;;;;-6.10;72.48;103031.28;5042760;28;20052;-72
2023/01/07 10:20:48;;;;;;;3.75;3.28;;;;;;;-6.14;73.51;103033.88;5025473;28;20201;-74
2023/01/07 10:23:30;;;;;;;4.93;3.30;;;;;;;-6.12;73.09;103030.41;5027473;28;20043;-74
2023/01/07 10:25:58;;;;;;;5.28;3.75;;;;;;;-6.04;72.33;103046.84;5046224;28;20030;-73
2023/01/07 10:28:37;;;;;;;6.18;5.03;;;;;;;-6.06;71.97;103048.59;5027010;28;20021;-72
2023/01/07 10:31:04;;;;;;;;;;;;;;;-5.97;74.00;103048.56;5045100;28;20036;-74
2023/01/07 10:33:33;;;;;;;3.25;2.95;;;;;;;-6.11;71.25;103044.25;5027670;28;19909;-74
2023/01/07 10:36:20;;;;;;;4.00;2.33;;;;;;;-6.07;72.18;103046.88;5048189;28;20093;-73
2023/01/07 10:39:10;;;;;;;4.43;3.03;;;;;;;-6.03;72.74;103048.59;5048755;28;20030;-74
2023/01/07 10:42:11;;;;;;;3.53;3.13;;;;;;;-6.05;70.93;103049.44;5047162;28;20570;-71
2023/01/07 10:44:37;;;;;;;5.28;3.53;;;;;;;-6.16;70.85;103046.84;5031230;28;20381;-69
2023/01/07 10:47:24;;;;;;;6.43;3.60;;;;;;;-6.20;71.02;103047.72;5039249;28;20056;-72
2023/01/07 10:50:23;;;;;;;3.20;2.90;;;;;;;-6.35;70.95;103039.94;5056418;28;20037;-71
2023/01/07 10:53:21;;;;;;;3.65;3.35;;;;;;;-6.39;70.75;103051.16;5039992;28;20025;-71
2023/01/07 10:56:05;;;;;;;5.47;3.33;;;;;;;-6.45;70.75;103049.41;5046467;28;20025;-72
2023/01/07 10:58:38;;;;;;;4.10;3.10;;;;;;;-6.46;71.39;103036.47;5028180;28;20473;-71
2023/01/07 11:01:12;;;;;;;3.55;3.28;;;;;;;-6.34;71.12;103042.53;5043979;28;20036;-75
2023/01/07 11:03:39;;;;;;;4.35;3.92;;;;;;;-6.40;70.22;103031.28;5040976;28;20037;-72
2023/01/07 11:06:10;;;;;;;8.88;2.92;;;;;;;-6.36;70.54;103043.38;5022146;28;20397;-76
2023/01/07 11:08:39;;;;;;;8.35;3.22;;;;;;;-6.48;69.91;103043.38;5023472;28;20544;-74
2023/01/07 11:11:10;;;;;;;7.75;3.17;;;;;;;-6.52;71.12;103037.31;5022660;28;20505;-74
2023/01/07 11:13:40;;;;;;;4.72;3.42;;;;;;;-6.45;72.17;103033.00;5018360;28;20033;-75
2023/01/07 11:16:16;;;;;;;4.75;3.08;;;;;;;-6.48;70.05;103028.69;5036373;28;20045;-74
2023/01/07 11:19:00;;;;;;;6.45;3.40;;;;;;;-6.40;71.02;103041.66;5038187;28;20048;-75
2023/01/07 11:21:51;;;;;;;4.90;3.03;;;;;;;-6.39;70.94;103040.78;5037483;28;20493;-75
2023/01/07 11:24:26;;;;;;;5.57;3.58;;;;;;;-6.45;69.76;103038.19;5037767;28;20497;-73
2023/01/07 11:27:11;;;;;;;4.28;3.83;;;;;;;-6.57;70.68;103029.56;5036465;28;20087;-72
2023/01/07 11:29:54;;;;;;;3.80;3.15;;;;;;;-6.54;70.70;103030.41;5036479;28;20374;-75
2023/01/07 11:32:33;;;;;;;3.33;3.13;;;;;;;-6.53;70.63;103029.56;5035199;28;20385;-72
2023/01/07 11:35:00;;;;;;;;;;;;;;;-6.51;71.62;103039.06;5036264;28;20048;-76
2023/01/07 11:37:44;;;;;;;5.13;3.03;;;;;;;-6.53;70.63;103034.72;5037356;28;20284;-73
2023/01/07 11:40:13;;;;;;;4.78;3.10;;;;;;;-6.46;70.81;103031.28;5035109;28;20036;-77
2023/01/07 11:43:14;;;;;;;2.83;2.63;;;;;;;-6.47;69.56;103029.53;5034951;28;20060;-73
2023/01/07 11:45:59;;;;;;;6.43;3.25;;;;;;;-6.58;70.23;103045.97;5031409;28;20067;-76